sensor_id;sensor_type;location;lat;lon;timestamp;P1;durP1;ratioP1;P2;durP2;ratioP2
428;SDS011;201;48.758;9.290;2022-11-23T00:01:32;6.03;;;2.80;;
428;SDS011;201;48.758;9.290;2022-11-23T00:03:59;3.90;;;2.63;;
428;SDS011;201;48.758;9.290;2022-11-23T00:06:27;4.13;;;2.30;;
428;SDS011;201;48.758;9.290;2022-11-23T00:08:53;3.60;;;2.60;;
428;SDS011;201;48.758;9.290;2022-11-23T00:11:19;2.60;;;2.20;;
428;SDS011;201;48.758;9.290;2022-11-23T00:13:46;5.20;;;2.30;;
428;SDS011;201;48.758;9.290;2022-11-23T00:16:13;2.93;;;2.30;;
428;SDS011;201;48.758;9.290;2022-11-23T00:18:39;5.20;;;2.60;;
428;SDS011;201;48.758;9.290;2022-11-23T00:21:08;3.00;;;2.60;;
428;SDS011;201;48.758;9.290;2022-11-23T00:23:38;6.00;;;3.43;;
428;SDS011;201;48.758;9.290;2022-11-23T00:26:04;4.90;;;2.57;;
428;SDS011;201;48.758;9.290;2022-11-23T00:28:31;4.00;;;2.87;;
428;SDS011;201;48.758;9.290;2022-11-23T00:30:56;2.77;;;2.50;;
428;SDS011;201;48.758;9.290;2022-11-23T00:33:22;6.57;;;2.37;;
428;SDS011;201;48.758;9.290;2022-11-23T00:35:57;7.53;;;3.23;;
428;SDS011;201;48.758;9.290;2022-11-23T00:38:27;3.83;;;2.30;;
428;SDS011;201;48.758;9.290;2022-11-23T00:40:57;3.83;;;2.50;;
428;SDS011;201;48.758;9.290;2022-11-23T00:43:23;3.00;;;2.00;;
428;SDS011;201;48.758;9.290;2022-11-23T00:45:49;4.50;;;2.40;;
428;SDS011;201;48.758;9.290;2022-11-23T00:48:15;4.93;;;2.37;;
428;SDS011;201;48.758;9.290;2022-11-23T00:50:40;2.40;;;2.20;;
428;SDS011;201;48.758;9.290;2022-11-23T00:53:06;3.90;;;2.40;;
428;SDS011;201;48.758;9.290;2022-11-23T00:55:31;5.27;;;2.20;;
428;SDS011;201;48.758;9.290;2022-11-23T00:57:57;4.77;;;2.00;;
428;SDS011;201;48.758;9.290;2022-11-23T01:00:22;3.03;;;2.27;;
428;SDS011;201;48.758;9.290;2022-11-23T01:02:48;5.60;;;2.83;;
428;SDS011;201;48.758;9.290;2022-11-23T01:05:13;3.30;;;1.87;;
428;SDS011;201;48.758;9.290;2022-11-23T01:07:39;6.30;;;2.60;;
428;SDS011;201;48.758;9.290;2022-11-23T01:10:04;1.90;;;1.87;;
428;SDS011;201;48.758;9.290;2022-11-23T01:12:32;5.67;;;1.80;;
428;SDS011;201;48.758;9.290;2022-11-23T01:14:57;3.43;;;2.17;;
428;SDS011;201;48.758;9.290;2022-11-23T01:17:23;4.00;;;1.97;;
428;SDS011;201;48.758;9.290;2022-11-23T01:19:48;6.10;;;2.80;;
428;SDS011;201;48.758;9.290;2022-11-23T01:22:14;2.03;;;1.60;;
428;SDS011;201;48.758;9.290;2022-11-23T01:24:39;3.33;;;2.13;;
428;SDS011;201;48.758;9.290;2022-11-23T01:27:05;8.30;;;2.60;;
428;SDS011;201;48.758;9.290;2022-11-23T01:29:30;6.53;;;2.83;;
428;SDS011;201;48.758;9.290;2022-11-23T01:31:56;3.47;;;2.27;;
428;SDS011;201;48.758;9.290;2022-11-23T01:34:21;4.97;;;2.60;;
428;SDS011;201;48.758;9.290;2022-11-23T01:36:47;3.73;;;2.10;;
428;SDS011;201;48.758;9.290;2022-11-23T01:39:12;4.53;;;2.40;;
428;SDS011;201;48.758;9.290;2022-11-23T01:41:39;3.10;;;2.00;;
428;SDS011;201;48.758;9.290;2022-11-23T01:44:26;5.63;;;2.50;;
428;SDS011;201;48.758;9.290;2022-11-23T01:46:54;3.97;;;2.43;;
428;SDS011;201;48.758;9.290;2022-11-23T01:49:22;12.87;;;3.13;;
428;SDS011;201;48.758;9.290;2022-11-23T01:51:49;3.83;;;2.73;;
428;SDS011;201;48.758;9.290;2022-11-23T01:54:27;3.40;;;3.07;;
428;SDS011;201;48.758;9.290;2022-11-23T01:56:57;7.03;;;3.27;;
428;SDS011;201;48.758;9.290;2022-11-23T01:59:27;3.63;;;2.20;;
428;SDS011;201;48.758;9.290;2022-11-23T02:01:54;3.00;;;2.20;;
428;SDS011;201;48.758;9.290;2022-11-23T02:04:21;4.40;;;2.93;;
428;SDS011;201;48.758;9.290;2022-11-23T02:06:50;8.60;;;3.43;;
428;SDS011;201;48.758;9.290;2022-11-23T02:09:16;4.73;;;3.33;;
428;SDS011;201;48.758;9.290;2022-11-23T02:11:43;9.20;;;4.57;;
428;SDS011;201;48.758;9.290;2022-11-23T02:14:09;10.20;;;3.50;;
428;SDS011;201;48.758;9.290;2022-11-23T02:16:35;4.10;;;3.50;;
428;SDS011;201;48.758;9.290;2022-11-23T02:19:02;6.03;;;3.53;;
428;SDS011;201;48.758;9.290;2022-11-23T02:21:29;9.60;;;3.80;;
428;SDS011;201;48.758;9.290;2022-11-23T02:24:02;10.30;;;3.87;;
428;SDS011;201;48.758;9.290;2022-11-23T02:26:33;6.73;;;3.87;;
428;SDS011;201;48.758;9.290;2022-11-23T02:29:15;6.53;;;4.30;;
428;SDS011;201;48.758;9.290;2022-11-23T02:31:45;4.63;;;3.80;;
428;SDS011;201;48.758;9.290;2022-11-23T02:34:11;8.50;;;4.20;;
428;SDS011;201;48.758;9.290;2022-11-23T02:36:40;5.03;;;4.40;;
428;SDS011;201;48.758;9.290;2022-11-23T02:39:19;6.07;;;4.00;;
428;SDS011;201;48.758;9.290;2022-11-23T02:41:52;6.90;;;4.80;;
428;SDS011;201;48.758;9.290;2022-11-23T02:46:55;5.23;;;3.70;;
428;SDS011;201;48.758;9.290;2022-11-23T02:49:22;4.45;;;3.65;;
428;SDS011;201;48.758;9.290;2022-11-23T02:51:48;6.05;;;3.63;;
428;SDS011;201;48.758;9.290;2022-11-23T02:54:13;6.03;;;3.87;;
428;SDS011;201;48.758;9.290;2022-11-23T02:56:39;4.63;;;3.00;;
428;SDS011;201;48.758;9.290;2022-11-23T02:59:05;4.82;;;3.33;;
428;SDS011;201;48.758;9.290;2022-11-23T03:01:30;7.17;;;4.50;;
428;SDS011;201;48.758;9.290;2022-11-23T03:03:56;4.70;;;3.43;;
428;SDS011;201;48.758;9.290;2022-11-23T03:06:21;6.63;;;3.40;;
428;SDS011;201;48.758;9.290;2022-11-23T03:08:47;8.40;;;4.13;;
428;SDS011;201;48.758;9.290;2022-11-23T03:11:12;5.20;;;3.10;;
428;SDS011;201;48.758;9.290;2022-11-23T03:13:38;6.23;;;4.30;;
428;SDS011;201;48.758;9.290;2022-11-23T03:16:03;5.20;;;3.83;;
428;SDS011;201;48.758;9.290;2022-11-23T03:18:29;11.10;;;3.87;;
428;SDS011;201;48.758;9.290;2022-11-23T03:20:55;5.27;;;3.33;;
428;SDS011;201;48.758;9.290;2022-11-23T03:23:29;3.93;;;3.20;;
428;SDS011;201;48.758;9.290;2022-11-23T03:25:55;4.40;;;3.63;;
428;SDS011;201;48.758;9.290;2022-11-23T03:28:21;9.90;;;4.10;;
428;SDS011;201;48.758;9.290;2022-11-23T03:30:47;7.37;;;3.80;;
428;SDS011;201;48.758;9.290;2022-11-23T03:33:12;4.60;;;3.57;;
428;SDS011;201;48.758;9.290;2022-11-23T03:35:38;8.33;;;3.77;;
428;SDS011;201;48.758;9.290;2022-11-23T03:38:04;6.75;;;3.78;;
428;SDS011;201;48.758;9.290;2022-11-23T03:40:29;5.47;;;3.90;;
428;SDS011;201;48.758;9.290;2022-11-23T03:42:55;5.63;;;3.73;;
428;SDS011;201;48.758;9.290;2022-11-23T03:45:20;6.97;;;3.60;;
428;SDS011;201;48.758;9.290;2022-11-23T03:47:46;7.37;;;3.60;;
428;SDS011;201;48.758;9.290;2022-11-23T03:50:11;10.77;;;3.10;;
428;SDS011;201;48.758;9.290;2022-11-23T03:52:37;8.60;;;3.20;;
428;SDS011;201;48.758;9.290;2022-11-23T03:55:02;8.10;;;2.90;;
428;SDS011;201;48.758;9.290;2022-11-23T03:57:28;6.47;;;3.10;;
428;SDS011;201;48.758;9.290;2022-11-23T03:59:53;3.00;;;2.73;;
428;SDS011;201;48.758;9.290;2022-11-23T04:02:19;4.63;;;2.80;;
428;SDS011;201;48.758;9.290;2022-11-23T04:04:44;3.40;;;2.87;;
428;SDS011;201;48.758;9.290;2022-11-23T04:07:10;2.67;;;2.50;;
428;SDS011;201;48.758;9.290;2022-11-23T04:09:35;8.13;;;3.53;;
428;SDS011;201;48.758;9.290;2022-11-23T04:12:01;3.67;;;2.50;;
428;SDS011;201;48.758;9.290;2022-11-23T04:14:26;5.00;;;2.97;;
428;SDS011;201;48.758;9.290;2022-11-23T04:16:52;6.00;;;2.30;;
428;SDS011;201;48.758;9.290;2022-11-23T04:19:17;5.20;;;2.47;;
428;SDS011;201;48.758;9.290;2022-11-23T04:21:43;8.63;;;3.30;;
428;SDS011;201;48.758;9.290;2022-11-23T04:24:08;5.33;;;2.10;;
428;SDS011;201;48.758;9.290;2022-11-23T04:26:34;7.50;;;2.43;;
428;SDS011;201;48.758;9.290;2022-11-23T04:28:59;3.00;;;2.43;;
428;SDS011;201;48.758;9.290;2022-11-23T04:31:25;4.47;;;2.30;;
428;SDS011;201;48.758;9.290;2022-11-23T04:33:50;7.67;;;2.93;;
428;SDS011;201;48.758;9.290;2022-11-23T04:36:16;3.13;;;2.57;;
428;SDS011;201;48.758;9.290;2022-11-23T04:38:41;4.00;;;2.70;;
428;SDS011;201;48.758;9.290;2022-11-23T04:41:07;3.67;;;2.57;;
428;SDS011;201;48.758;9.290;2022-11-23T04:43:32;3.63;;;2.20;;
428;SDS011;201;48.758;9.290;2022-11-23T04:45:58;6.30;;;2.07;;
428;SDS011;201;48.758;9.290;2022-11-23T04:48:23;6.60;;;2.57;;
428;SDS011;201;48.758;9.290;2022-11-23T04:50:49;4.10;;;2.43;;
428;SDS011;201;48.758;9.290;2022-11-23T04:53:14;4.30;;;2.90;;
428;SDS011;201;48.758;9.290;2022-11-23T04:55:40;4.17;;;3.00;;
428;SDS011;201;48.758;9.290;2022-11-23T04:58:06;3.83;;;2.40;;
428;SDS011;201;48.758;9.290;2022-11-23T05:00:31;5.97;;;3.50;;
428;SDS011;201;48.758;9.290;2022-11-23T05:03:00;6.23;;;2.70;;
428;SDS011;201;48.758;9.290;2022-11-23T05:05:26;3.57;;;2.63;;
428;SDS011;201;48.758;9.290;2022-11-23T05:07:51;3.53;;;2.40;;
428;SDS011;201;48.758;9.290;2022-11-23T05:10:17;9.27;;;3.20;;
428;SDS011;201;48.758;9.290;2022-11-23T05:12:42;3.70;;;2.57;;
428;SDS011;201;48.758;9.290;2022-11-23T05:15:09;8.27;;;3.30;;
428;SDS011;201;48.758;9.290;2022-11-23T05:17:36;4.10;;;2.17;;
428;SDS011;201;48.758;9.290;2022-11-23T05:20:01;3.30;;;2.90;;
428;SDS011;201;48.758;9.290;2022-11-23T05:22:27;7.03;;;2.90;;
428;SDS011;201;48.758;9.290;2022-11-23T05:24:53;5.47;;;3.07;;
428;SDS011;201;48.758;9.290;2022-11-23T05:27:18;3.23;;;2.67;;
428;SDS011;201;48.758;9.290;2022-11-23T05:29:44;6.80;;;3.20;;
428;SDS011;201;48.758;9.290;2022-11-23T05:32:10;5.17;;;2.80;;
428;SDS011;201;48.758;9.290;2022-11-23T05:34:35;7.20;;;2.93;;
428;SDS011;201;48.758;9.290;2022-11-23T05:37:01;6.37;;;3.07;;
428;SDS011;201;48.758;9.290;2022-11-23T05:39:26;5.27;;;3.03;;
428;SDS011;201;48.758;9.290;2022-11-23T05:41:52;4.33;;;3.00;;
428;SDS011;201;48.758;9.290;2022-11-23T05:44:18;6.23;;;2.97;;
428;SDS011;201;48.758;9.290;2022-11-23T05:46:43;4.80;;;2.97;;
428;SDS011;201;48.758;9.290;2022-11-23T05:49:09;5.70;;;3.37;;
428;SDS011;201;48.758;9.290;2022-11-23T05:51:34;4.53;;;2.70;;
428;SDS011;201;48.758;9.290;2022-11-23T05:54:00;8.83;;;2.73;;
428;SDS011;201;48.758;9.290;2022-11-23T05:56:26;3.60;;;2.45;;
428;SDS011;201;48.758;9.290;2022-11-23T05:58:53;8.87;;;3.50;;
428;SDS011;201;48.758;9.290;2022-11-23T06:01:20;8.83;;;3.40;;
428;SDS011;201;48.758;9.290;2022-11-23T06:03:46;5.10;;;3.00;;
428;SDS011;201;48.758;9.290;2022-11-23T06:06:13;6.00;;;3.03;;
428;SDS011;201;48.758;9.290;2022-11-23T06:08:38;4.07;;;2.37;;
428;SDS011;201;48.758;9.290;2022-11-23T06:11:04;8.70;;;3.60;;
428;SDS011;201;48.758;9.290;2022-11-23T06:13:30;3.20;;;3.00;;
428;SDS011;201;48.758;9.290;2022-11-23T06:15:56;9.30;;;2.90;;
428;SDS011;201;48.758;9.290;2022-11-23T06:18:21;3.50;;;2.33;;
428;SDS011;201;48.758;9.290;2022-11-23T06:20:47;6.40;;;2.43;;
428;SDS011;201;48.758;9.290;2022-11-23T06:23:12;4.00;;;2.30;;
428;SDS011;201;48.758;9.290;2022-11-23T06:25:38;3.73;;;2.37;;
428;SDS011;201;48.758;9.290;2022-11-23T06:28:04;4.10;;;2.60;;
428;SDS011;201;48.758;9.290;2022-11-23T06:30:30;4.57;;;2.13;;
428;SDS011;201;48.758;9.290;2022-11-23T06:32:56;5.87;;;2.93;;
428;SDS011;201;48.758;9.290;2022-11-23T06:35:21;2.97;;;2.37;;
428;SDS011;201;48.758;9.290;2022-11-23T06:37:48;3.47;;;2.47;;
428;SDS011;201;48.758;9.290;2022-11-23T06:40:14;7.33;;;3.10;;
428;SDS011;201;48.758;9.290;2022-11-23T06:42:40;8.87;;;2.97;;
428;SDS011;201;48.758;9.290;2022-11-23T06:45:05;5.20;;;2.63;;
428;SDS011;201;48.758;9.290;2022-11-23T06:47:32;6.03;;;3.10;;
428;SDS011;201;48.758;9.290;2022-11-23T06:49:57;5.73;;;3.17;;
428;SDS011;201;48.758;9.290;2022-11-23T06:52:23;4.10;;;3.27;;
428;SDS011;201;48.758;9.290;2022-11-23T06:54:48;4.43;;;3.57;;
428;SDS011;201;48.758;9.290;2022-11-23T06:57:15;4.60;;;3.17;;
428;SDS011;201;48.758;9.290;2022-11-23T06:59:40;3.93;;;3.10;;
428;SDS011;201;48.758;9.290;2022-11-23T07:02:06;3.80;;;2.73;;
428;SDS011;201;48.758;9.290;2022-11-23T07:04:33;4.85;;;2.65;;
428;SDS011;201;48.758;9.290;2022-11-23T07:06:58;6.97;;;3.17;;
428;SDS011;201;48.758;9.290;2022-11-23T07:09:24;6.33;;;4.10;;
428;SDS011;201;48.758;9.290;2022-11-23T07:11:49;5.03;;;3.83;;
428;SDS011;201;48.758;9.290;2022-11-23T07:14:15;4.33;;;3.43;;
428;SDS011;201;48.758;9.290;2022-11-23T07:16:40;5.23;;;4.10;;
428;SDS011;201;48.758;9.290;2022-11-23T07:19:06;5.30;;;4.37;;
428;SDS011;201;48.758;9.290;2022-11-23T07:21:32;7.83;;;4.37;;
428;SDS011;201;48.758;9.290;2022-11-23T07:23:58;5.83;;;4.43;;
428;SDS011;201;48.758;9.290;2022-11-23T07:26:23;6.10;;;3.50;;
428;SDS011;201;48.758;9.290;2022-11-23T07:28:49;5.23;;;3.80;;
428;SDS011;201;48.758;9.290;2022-11-23T07:31:14;5.60;;;4.03;;
428;SDS011;201;48.758;9.290;2022-11-23T07:33:46;5.77;;;2.87;;
428;SDS011;201;48.758;9.290;2022-11-23T07:36:12;4.97;;;4.05;;
428;SDS011;201;48.758;9.290;2022-11-23T07:38:38;6.40;;;3.20;;
428;SDS011;201;48.758;9.290;2022-11-23T07:41:04;5.63;;;3.50;;
428;SDS011;201;48.758;9.290;2022-11-23T07:43:29;6.87;;;4.30;;
428;SDS011;201;48.758;9.290;2022-11-23T07:45:55;6.57;;;3.50;;
428;SDS011;201;48.758;9.290;2022-11-23T07:48:21;5.13;;;3.37;;
428;SDS011;201;48.758;9.290;2022-11-23T07:50:47;3.93;;;3.60;;
428;SDS011;201;48.758;9.290;2022-11-23T07:53:15;6.17;;;2.97;;
428;SDS011;201;48.758;9.290;2022-11-23T07:55:41;7.00;;;4.03;;
428;SDS011;201;48.758;9.290;2022-11-23T07:58:07;7.30;;;3.40;;
428;SDS011;201;48.758;9.290;2022-11-23T08:00:33;4.70;;;3.33;;
428;SDS011;201;48.758;9.290;2022-11-23T08:02:59;3.90;;;3.60;;
428;SDS011;201;48.758;9.290;2022-11-23T08:05:24;4.93;;;3.90;;
428;SDS011;201;48.758;9.290;2022-11-23T08:07:50;11.60;;;4.07;;
428;SDS011;201;48.758;9.290;2022-11-23T08:10:21;10.10;;;3.53;;
428;SDS011;201;48.758;9.290;2022-11-23T08:12:46;8.70;;;3.30;;
428;SDS011;201;48.758;9.290;2022-11-23T08:15:12;6.07;;;3.87;;
428;SDS011;201;48.758;9.290;2022-11-23T08:17:37;6.67;;;3.80;;
428;SDS011;201;48.758;9.290;2022-11-23T08:20:03;4.40;;;3.77;;
428;SDS011;201;48.758;9.290;2022-11-23T08:22:29;9.23;;;4.10;;
428;SDS011;201;48.758;9.290;2022-11-23T08:24:54;6.63;;;3.90;;
428;SDS011;201;48.758;9.290;2022-11-23T08:27:20;7.80;;;3.50;;
428;SDS011;201;48.758;9.290;2022-11-23T08:29:45;6.03;;;3.20;;
428;SDS011;201;48.758;9.290;2022-11-23T08:32:11;9.40;;;4.63;;
428;SDS011;201;48.758;9.290;2022-11-23T08:34:36;5.00;;;3.60;;
428;SDS011;201;48.758;9.290;2022-11-23T08:37:02;7.57;;;3.33;;
428;SDS011;201;48.758;9.290;2022-11-23T08:39:27;4.80;;;2.80;;
428;SDS011;201;48.758;9.290;2022-11-23T08:41:53;4.13;;;2.93;;
428;SDS011;201;48.758;9.290;2022-11-23T08:44:18;3.43;;;2.53;;
428;SDS011;201;48.758;9.290;2022-11-23T08:46:44;6.20;;;3.00;;
428;SDS011;201;48.758;9.290;2022-11-23T08:49:10;5.20;;;3.07;;
428;SDS011;201;48.758;9.290;2022-11-23T08:51:35;6.40;;;2.70;;
428;SDS011;201;48.758;9.290;2022-11-23T08:54:01;7.80;;;3.23;;
428;SDS011;201;48.758;9.290;2022-11-23T08:56:26;3.37;;;2.77;;
428;SDS011;201;48.758;9.290;2022-11-23T08:58:52;2.77;;;2.30;;
428;SDS011;201;48.758;9.290;2022-11-23T09:01:17;2.90;;;2.40;;
428;SDS011;201;48.758;9.290;2022-11-23T09:03:43;4.80;;;2.37;;
428;SDS011;201;48.758;9.290;2022-11-23T09:06:09;4.23;;;2.20;;
428;SDS011;201;48.758;9.290;2022-11-23T09:08:36;4.00;;;2.77;;
428;SDS011;201;48.758;9.290;2022-11-23T09:11:02;3.50;;;2.80;;
428;SDS011;201;48.758;9.290;2022-11-23T09:13:29;3.20;;;2.60;;
428;SDS011;201;48.758;9.290;2022-11-23T09:15:58;9.03;;;3.07;;
428;SDS011;201;48.758;9.290;2022-11-23T09:18:25;4.60;;;3.20;;
428;SDS011;201;48.758;9.290;2022-11-23T09:20:51;6.00;;;2.90;;
428;SDS011;201;48.758;9.290;2022-11-23T09:23:17;4.30;;;2.80;;
428;SDS011;201;48.758;9.290;2022-11-23T09:25:43;7.03;;;2.73;;
428;SDS011;201;48.758;9.290;2022-11-23T09:28:12;3.93;;;2.83;;
428;SDS011;201;48.758;9.290;2022-11-23T09:30:38;3.10;;;2.70;;
428;SDS011;201;48.758;9.290;2022-11-23T09:33:04;3.70;;;2.53;;
428;SDS011;201;48.758;9.290;2022-11-23T09:35:30;6.00;;;2.70;;
428;SDS011;201;48.758;9.290;2022-11-23T09:37:59;9.07;;;3.70;;
428;SDS011;201;48.758;9.290;2022-11-23T09:40:30;3.40;;;2.90;;
428;SDS011;201;48.758;9.290;2022-11-23T09:45:53;8.20;;;3.30;;
428;SDS011;201;48.758;9.290;2022-11-23T09:53:49;12.03;;;4.17;;
428;SDS011;201;48.758;9.290;2022-11-23T09:56:27;5.87;;;3.00;;
428;SDS011;201;48.758;9.290;2022-11-23T09:58:58;9.63;;;4.17;;
428;SDS011;201;48.758;9.290;2022-11-23T10:01:26;6.70;;;3.50;;
428;SDS011;201;48.758;9.290;2022-11-23T10:03:52;4.70;;;2.90;;
428;SDS011;201;48.758;9.290;2022-11-23T10:17:10;5.27;;;3.50;;
428;SDS011;201;48.758;9.290;2022-11-23T10:22:21;4.33;;;3.13;;
428;SDS011;201;48.758;9.290;2022-11-23T10:25:00;5.43;;;3.90;;
428;SDS011;201;48.758;9.290;2022-11-23T10:27:34;7.27;;;3.30;;
428;SDS011;201;48.758;9.290;2022-11-23T10:30:00;5.10;;;3.20;;
428;SDS011;201;48.758;9.290;2022-11-23T10:32:30;7.50;;;3.20;;
428;SDS011;201;48.758;9.290;2022-11-23T10:35:20;4.57;;;2.90;;
428;SDS011;201;48.758;9.290;2022-11-23T10:38:14;5.90;;;3.10;;
428;SDS011;201;48.758;9.290;2022-11-23T10:40:44;4.37;;;2.67;;
428;SDS011;201;48.758;9.290;2022-11-23T10:43:22;4.10;;;3.10;;
428;SDS011;201;48.758;9.290;2022-11-23T10:45:50;4.47;;;2.73;;
428;SDS011;201;48.758;9.290;2022-11-23T10:48:35;8.23;;;3.43;;
428;SDS011;201;48.758;9.290;2022-11-23T10:51:19;4.93;;;2.73;;
428;SDS011;201;48.758;9.290;2022-11-23T10:54:33;4.33;;;2.90;;
428;SDS011;201;48.758;9.290;2022-11-23T10:56:47;4.00;;;2.57;;
428;SDS011;201;48.758;9.290;2022-11-23T10:59:56;5.57;;;2.43;;
428;SDS011;201;48.758;9.290;2022-11-23T11:02:19;10.93;;;2.97;;
428;SDS011;201;48.758;9.290;2022-11-23T11:04:46;8.77;;;3.50;;
428;SDS011;201;48.758;9.290;2022-11-23T11:07:27;4.77;;;2.80;;
428;SDS011;201;48.758;9.290;2022-11-23T11:09:55;2.90;;;2.60;;
428;SDS011;201;48.758;9.290;2022-11-23T11:12:24;3.40;;;2.57;;
428;SDS011;201;48.758;9.290;2022-11-23T11:14:54;3.20;;;2.50;;
428;SDS011;201;48.758;9.290;2022-11-23T11:17:27;3.90;;;2.00;;
428;SDS011;201;48.758;9.290;2022-11-23T11:19:58;2.70;;;2.17;;
428;SDS011;201;48.758;9.290;2022-11-23T11:22:28;6.93;;;2.30;;
428;SDS011;201;48.758;9.290;2022-11-23T11:24:58;5.47;;;2.80;;
428;SDS011;201;48.758;9.290;2022-11-23T11:27:25;5.13;;;2.27;;
428;SDS011;201;48.758;9.290;2022-11-23T11:29:53;5.53;;;3.47;;
428;SDS011;201;48.758;9.290;2022-11-23T11:32:46;4.17;;;2.80;;
428;SDS011;201;48.758;9.290;2022-11-23T11:35:21;3.97;;;2.67;;
428;SDS011;201;48.758;9.290;2022-11-23T11:37:51;5.23;;;2.80;;
428;SDS011;201;48.758;9.290;2022-11-23T11:40:32;3.03;;;2.27;;
428;SDS011;201;48.758;9.290;2022-11-23T11:45:40;2.80;;;1.93;;
428;SDS011;201;48.758;9.290;2022-11-23T11:48:11;3.87;;;2.20;;
428;SDS011;201;48.758;9.290;2022-11-23T11:50:40;5.17;;;2.70;;
428;SDS011;201;48.758;9.290;2022-11-23T11:53:16;2.90;;;2.47;;
428;SDS011;201;48.758;9.290;2022-11-23T11:55:53;3.97;;;2.40;;
428;SDS011;201;48.758;9.290;2022-11-23T11:58:42;5.53;;;2.30;;
428;SDS011;201;48.758;9.290;2022-11-23T12:04:22;1.80;;;1.70;;
428;SDS011;201;48.758;9.290;2022-11-23T12:09:29;3.60;;;2.07;;
428;SDS011;201;48.758;9.290;2022-11-23T12:11:59;2.40;;;1.50;;
428;SDS011;201;48.758;9.290;2022-11-23T12:14:24;4.37;;;2.20;;
428;SDS011;201;48.758;9.290;2022-11-23T12:25:28;2.87;;;1.90;;
428;SDS011;201;48.758;9.290;2022-11-23T12:28:05;2.53;;;1.50;;
428;SDS011;201;48.758;9.290;2022-11-23T12:33:22;2.30;;;1.30;;
428;SDS011;201;48.758;9.290;2022-11-23T12:38:47;2.07;;;0.97;;
428;SDS011;201;48.758;9.290;2022-11-23T12:41:27;2.03;;;1.10;;
428;SDS011;201;48.758;9.290;2022-11-23T12:50:26;4.40;;;1.27;;
428;SDS011;201;48.758;9.290;2022-11-23T12:58:28;1.37;;;1.03;;
428;SDS011;201;48.758;9.290;2022-11-23T13:06:39;1.10;;;0.93;;
428;SDS011;201;48.758;9.290;2022-11-23T13:10:02;5.00;;;1.33;;
428;SDS011;201;48.758;9.290;2022-11-23T13:18:04;2.07;;;0.83;;
428;SDS011;201;48.758;9.290;2022-11-23T13:23:47;2.00;;;0.90;;
428;SDS011;201;48.758;9.290;2022-11-23T13:26:20;4.50;;;2.07;;
428;SDS011;201;48.758;9.290;2022-11-23T13:28:51;1.40;;;0.80;;
428;SDS011;201;48.758;9.290;2022-11-23T13:33:48;6.20;;;1.10;;
428;SDS011;201;48.758;9.290;2022-11-23T13:38:53;3.40;;;1.70;;
428;SDS011;201;48.758;9.290;2022-11-23T13:44:11;1.10;;;0.93;;
428;SDS011;201;48.758;9.290;2022-11-23T13:47:00;2.50;;;0.70;;
428;SDS011;201;48.758;9.290;2022-11-23T13:52:20;1.80;;;1.10;;
428;SDS011;201;48.758;9.290;2022-11-23T13:55:03;4.77;;;1.17;;
428;SDS011;201;48.758;9.290;2022-11-23T13:57:38;2.10;;;1.10;;
428;SDS011;201;48.758;9.290;2022-11-23T14:09:24;2.30;;;1.10;;
428;SDS011;201;48.758;9.290;2022-11-23T14:14:28;2.70;;;0.90;;
428;SDS011;201;48.758;9.290;2022-11-23T14:22:32;2.10;;;1.00;;
428;SDS011;201;48.758;9.290;2022-11-23T14:33:19;2.00;;;0.83;;
428;SDS011;201;48.758;9.290;2022-11-23T14:41:53;3.90;;;0.83;;
428;SDS011;201;48.758;9.290;2022-11-23T14:44:26;2.07;;;0.80;;
428;SDS011;201;48.758;9.290;2022-11-23T14:47:02;1.70;;;1.10;;
428;SDS011;201;48.758;9.290;2022-11-23T14:49:32;1.00;;;0.70;;
428;SDS011;201;48.758;9.290;2022-11-23T14:51:58;2.17;;;1.10;;
428;SDS011;201;48.758;9.290;2022-11-23T14:54:25;1.63;;;1.00;;
428;SDS011;201;48.758;9.290;2022-11-23T14:56:53;2.13;;;1.40;;
428;SDS011;201;48.758;9.290;2022-11-23T14:59:26;3.47;;;1.10;;
428;SDS011;201;48.758;9.290;2022-11-23T15:01:58;1.67;;;1.20;;
428;SDS011;201;48.758;9.290;2022-11-23T15:04:30;2.37;;;1.40;;
428;SDS011;201;48.758;9.290;2022-11-23T15:15:15;1.67;;;1.00;;
428;SDS011;201;48.758;9.290;2022-11-23T15:17:53;1.67;;;0.80;;
428;SDS011;201;48.758;9.290;2022-11-23T15:20:27;3.80;;;1.27;;
428;SDS011;201;48.758;9.290;2022-11-23T15:22:56;3.03;;;1.20;;
428;SDS011;201;48.758;9.290;2022-11-23T15:25:22;3.33;;;3.13;;
428;SDS011;201;48.758;9.290;2022-11-23T15:27:48;4.30;;;1.40;;
428;SDS011;201;48.758;9.290;2022-11-23T15:30:17;1.93;;;1.00;;
428;SDS011;201;48.758;9.290;2022-11-23T15:32:54;1.20;;;1.10;;
428;SDS011;201;48.758;9.290;2022-11-23T15:35:35;2.17;;;1.23;;
428;SDS011;201;48.758;9.290;2022-11-23T15:38:03;3.67;;;1.40;;
428;SDS011;201;48.758;9.290;2022-11-23T15:40:36;4.23;;;2.10;;
428;SDS011;201;48.758;9.290;2022-11-23T15:43:09;3.77;;;1.80;;
428;SDS011;201;48.758;9.290;2022-11-23T15:48:15;4.03;;;1.77;;
428;SDS011;201;48.758;9.290;2022-11-23T15:50:53;2.23;;;1.60;;
428;SDS011;201;48.758;9.290;2022-11-23T15:53:25;4.13;;;1.60;;
428;SDS011;201;48.758;9.290;2022-11-23T15:55:53;2.17;;;1.70;;
428;SDS011;201;48.758;9.290;2022-11-23T15:58:22;4.57;;;1.30;;
428;SDS011;201;48.758;9.290;2022-11-23T16:00:49;4.20;;;1.73;;
428;SDS011;201;48.758;9.290;2022-11-23T16:03:19;2.77;;;1.37;;
428;SDS011;201;48.758;9.290;2022-11-23T16:08:37;5.30;;;1.53;;
428;SDS011;201;48.758;9.290;2022-11-23T16:11:05;1.80;;;1.50;;
428;SDS011;201;48.758;9.290;2022-11-23T16:13:42;1.73;;;1.63;;
428;SDS011;201;48.758;9.290;2022-11-23T16:16:13;2.20;;;1.40;;
428;SDS011;201;48.758;9.290;2022-11-23T16:18:45;4.10;;;1.80;;
428;SDS011;201;48.758;9.290;2022-11-23T16:21:14;2.70;;;1.83;;
428;SDS011;201;48.758;9.290;2022-11-23T16:23:48;3.47;;;2.10;;
428;SDS011;201;48.758;9.290;2022-11-23T16:26:18;4.23;;;1.83;;
428;SDS011;201;48.758;9.290;2022-11-23T16:29:02;2.20;;;2.00;;
428;SDS011;201;48.758;9.290;2022-11-23T16:31:34;3.43;;;1.77;;
428;SDS011;201;48.758;9.290;2022-11-23T16:34:16;4.63;;;2.60;;
428;SDS011;201;48.758;9.290;2022-11-23T16:36:43;3.80;;;2.23;;
428;SDS011;201;48.758;9.290;2022-11-23T16:39:09;3.20;;;2.33;;
428;SDS011;201;48.758;9.290;2022-11-23T16:41:35;3.13;;;2.73;;
428;SDS011;201;48.758;9.290;2022-11-23T16:44:00;3.30;;;2.37;;
428;SDS011;201;48.758;9.290;2022-11-23T16:46:26;7.23;;;2.97;;
428;SDS011;201;48.758;9.290;2022-11-23T16:48:51;3.60;;;2.23;;
428;SDS011;201;48.758;9.290;2022-11-23T16:51:18;2.73;;;2.03;;
428;SDS011;201;48.758;9.290;2022-11-23T16:53:44;7.50;;;2.37;;
428;SDS011;201;48.758;9.290;2022-11-23T16:56:16;5.37;;;2.50;;
428;SDS011;201;48.758;9.290;2022-11-23T16:58:44;5.37;;;3.07;;
428;SDS011;201;48.758;9.290;2022-11-23T17:01:16;8.80;;;5.20;;
428;SDS011;201;48.758;9.290;2022-11-23T17:03:49;7.37;;;4.20;;
428;SDS011;201;48.758;9.290;2022-11-23T17:06:17;9.80;;;4.60;;
428;SDS011;201;48.758;9.290;2022-11-23T17:08:47;3.33;;;2.50;;
428;SDS011;201;48.758;9.290;2022-11-23T17:11:13;3.90;;;2.60;;
428;SDS011;201;48.758;9.290;2022-11-23T17:13:40;7.13;;;2.67;;
428;SDS011;201;48.758;9.290;2022-11-23T17:16:17;2.67;;;2.00;;
428;SDS011;201;48.758;9.290;2022-11-23T17:18:44;2.40;;;2.00;;
428;SDS011;201;48.758;9.290;2022-11-23T17:21:09;3.50;;;2.53;;
428;SDS011;201;48.758;9.290;2022-11-23T17:23:35;2.13;;;1.60;;
428;SDS011;201;48.758;9.290;2022-11-23T17:26:04;1.27;;;0.90;;
428;SDS011;201;48.758;9.290;2022-11-23T17:28:31;2.40;;;1.43;;
428;SDS011;201;48.758;9.290;2022-11-23T17:30:57;4.33;;;1.53;;
428;SDS011;201;48.758;9.290;2022-11-23T17:33:22;4.83;;;2.30;;
428;SDS011;201;48.758;9.290;2022-11-23T17:35:48;2.90;;;2.20;;
428;SDS011;201;48.758;9.290;2022-11-23T17:38:15;3.80;;;1.70;;
428;SDS011;201;48.758;9.290;2022-11-23T17:40:47;2.50;;;1.70;;
428;SDS011;201;48.758;9.290;2022-11-23T17:43:13;3.30;;;1.23;;
428;SDS011;201;48.758;9.290;2022-11-23T17:45:38;2.80;;;1.70;;
428;SDS011;201;48.758;9.290;2022-11-23T17:48:05;2.17;;;1.60;;
428;SDS011;201;48.758;9.290;2022-11-23T17:50:30;4.20;;;1.20;;
428;SDS011;201;48.758;9.290;2022-11-23T17:52:56;2.00;;;1.10;;
428;SDS011;201;48.758;9.290;2022-11-23T17:55:21;3.07;;;1.07;;
428;SDS011;201;48.758;9.290;2022-11-23T17:57:47;1.90;;;1.50;;
428;SDS011;201;48.758;9.290;2022-11-23T18:00:14;2.10;;;1.57;;
428;SDS011;201;48.758;9.290;2022-11-23T18:02:44;2.67;;;1.53;;